sensor_id;sensor_type;location;lat;lon;timestamp;P1;durP1;ratioP1;P2;durP2;ratioP2
23394;SDS011;11870;53.084;18.206;2024-03-23T00:54:28;19.52;;;3.53;;
23394;SDS011;11870;53.084;18.206;2024-03-23T00:56:54;14.20;;;3.30;;
23394;SDS011;11870;53.084;18.206;2024-03-23T00:59:20;11.23;;;3.28;;
23394;SDS011;11870;53.084;18.206;2024-03-23T01:01:52;15.55;;;3.00;;
23394;SDS011;11870;53.084;18.206;2024-03-23T01:04:19;11.07;;;2.70;;
23394;SDS011;11870;53.084;18.206;2024-03-23T01:06:45;15.88;;;3.55;;
23394;SDS011;11870;53.084;18.206;2024-03-23T01:09:13;14.40;;;3.25;;
23394;SDS011;11870;53.084;18.206;2024-03-23T01:11:40;12.77;;;2.65;;
23394;SDS011;11870;53.084;18.206;2024-03-23T01:14:06;12.55;;;3.70;;
23394;SDS011;11870;53.084;18.206;2024-03-23T01:16:33;16.85;;;3.53;;
23394;SDS011;11870;53.084;18.206;2024-03-23T01:18:59;41.90;;;17.30;;
23394;SDS011;11870;53.084;18.206;2024-03-23T01:21:26;28.40;;;11.25;;
23394;SDS011;11870;53.084;18.206;2024-03-23T01:23:52;18.05;;;5.00;;
23394;SDS011;11870;53.084;18.206;2024-03-23T01:26:18;13.15;;;3.47;;
23394;SDS011;11870;53.084;18.206;2024-03-23T01:28:45;11.88;;;3.55;;
23394;SDS011;11870;53.084;18.206;2024-03-23T01:31:11;13.02;;;3.45;;
23394;SDS011;11870;53.084;18.206;2024-03-23T01:33:38;13.23;;;3.30;;
23394;SDS011;11870;53.084;18.206;2024-03-23T01:36:04;11.50;;;3.55;;
23394;SDS011;11870;53.084;18.206;2024-03-23T01:38:31;13.25;;;3.40;;
23394;SDS011;11870;53.084;18.206;2024-03-23T01:40:57;9.70;;;3.05;;
23394;SDS011;11870;53.084;18.206;2024-03-23T01:43:24;16.27;;;3.78;;
23394;SDS011;11870;53.084;18.206;2024-03-23T01:45:50;15.38;;;3.63;;
23394;SDS011;11870;53.084;18.206;2024-03-23T01:48:19;8.65;;;3.63;;
23394;SDS011;11870;53.084;18.206;2024-03-23T01:50:46;18.48;;;3.80;;
23394;SDS011;11870;53.084;18.206;2024-03-23T01:53:13;16.23;;;4.20;;
23394;SDS011;11870;53.084;18.206;2024-03-23T01:55:43;12.75;;;4.15;;
23394;SDS011;11870;53.084;18.206;2024-03-23T01:58:09;14.07;;;4.20;;
23394;SDS011;11870;53.084;18.206;2024-03-23T02:00:36;17.73;;;4.18;;
23394;SDS011;11870;53.084;18.206;2024-03-23T02:03:03;13.93;;;4.45;;
23394;SDS011;11870;53.084;18.206;2024-03-23T02:05:48;17.45;;;4.45;;
23394;SDS011;11870;53.084;18.206;2024-03-23T02:08:15;16.55;;;4.65;;
23394;SDS011;11870;53.084;18.206;2024-03-23T02:10:43;14.13;;;4.30;;
23394;SDS011;11870;53.084;18.206;2024-03-23T02:13:09;24.15;;;5.13;;
23394;SDS011;11870;53.084;18.206;2024-03-23T02:15:36;13.32;;;3.95;;
23394;SDS011;11870;53.084;18.206;2024-03-23T02:18:02;15.98;;;4.40;;
23394;SDS011;11870;53.084;18.206;2024-03-23T02:20:29;15.43;;;4.32;;
23394;SDS011;11870;53.084;18.206;2024-03-23T02:22:55;18.42;;;4.45;;
23394;SDS011;11870;53.084;18.206;2024-03-23T02:25:22;16.55;;;4.15;;
23394;SDS011;11870;53.084;18.206;2024-03-23T02:27:48;17.70;;;4.10;;
23394;SDS011;11870;53.084;18.206;2024-03-23T02:30:15;16.90;;;3.85;;
23394;SDS011;11870;53.084;18.206;2024-03-23T02:32:41;19.67;;;4.35;;
23394;SDS011;11870;53.084;18.206;2024-03-23T02:35:08;23.15;;;4.38;;
23394;SDS011;11870;53.084;18.206;2024-03-23T02:37:34;16.23;;;4.57;;
23394;SDS011;11870;53.084;18.206;2024-03-23T02:40:01;17.75;;;4.38;;
23394;SDS011;11870;53.084;18.206;2024-03-23T02:42:27;19.27;;;4.28;;
23394;SDS011;11870;53.084;18.206;2024-03-23T02:44:54;19.55;;;3.85;;
23394;SDS011;11870;53.084;18.206;2024-03-23T02:47:20;15.25;;;4.35;;
23394;SDS011;11870;53.084;18.206;2024-03-23T02:49:47;15.82;;;4.20;;
23394;SDS011;11870;53.084;18.206;2024-03-23T02:52:13;17.23;;;4.25;;
23394;SDS011;11870;53.084;18.206;2024-03-23T02:54:40;13.43;;;3.83;;
23394;SDS011;11870;53.084;18.206;2024-03-23T02:57:10;12.57;;;3.22;;
23394;SDS011;11870;53.084;18.206;2024-03-23T02:59:36;16.55;;;3.92;;
23394;SDS011;11870;53.084;18.206;2024-03-23T03:02:03;18.58;;;4.43;;
23394;SDS011;11870;53.084;18.206;2024-03-23T03:04:30;17.35;;;3.97;;
23394;SDS011;11870;53.084;18.206;2024-03-23T03:06:57;11.70;;;3.78;;
23394;SDS011;11870;53.084;18.206;2024-03-23T03:09:24;11.30;;;4.05;;
23394;SDS011;11870;53.084;18.206;2024-03-23T03:11:50;12.25;;;3.63;;
23394;SDS011;11870;53.084;18.206;2024-03-23T03:14:17;19.45;;;3.70;;
23394;SDS011;11870;53.084;18.206;2024-03-23T03:16:43;16.83;;;3.65;;
23394;SDS011;11870;53.084;18.206;2024-03-23T03:19:09;14.05;;;3.95;;
23394;SDS011;11870;53.084;18.206;2024-03-23T03:21:36;16.23;;;4.45;;
23394;SDS011;11870;53.084;18.206;2024-03-23T03:24:03;19.63;;;3.95;;
23394;SDS011;11870;53.084;18.206;2024-03-23T03:26:30;11.82;;;3.50;;
23394;SDS011;11870;53.084;18.206;2024-03-23T03:28:56;21.95;;;4.65;;
23394;SDS011;11870;53.084;18.206;2024-03-23T03:31:23;17.33;;;3.97;;
23394;SDS011;11870;53.084;18.206;2024-03-23T03:33:49;19.02;;;3.60;;
23394;SDS011;11870;53.084;18.206;2024-03-23T03:36:16;13.25;;;3.88;;
23394;SDS011;11870;53.084;18.206;2024-03-23T03:38:43;11.30;;;3.47;;
23394;SDS011;11870;53.084;18.206;2024-03-23T03:41:09;11.57;;;3.30;;
23394;SDS011;11870;53.084;18.206;2024-03-23T03:43:36;13.80;;;3.58;;
23394;SDS011;11870;53.084;18.206;2024-03-23T03:46:03;17.23;;;4.15;;
23394;SDS011;11870;53.084;18.206;2024-03-23T03:48:30;12.88;;;3.67;;
23394;SDS011;11870;53.084;18.206;2024-03-23T03:50:56;13.30;;;3.95;;
23394;SDS011;11870;53.084;18.206;2024-03-23T03:53:23;13.13;;;3.70;;
23394;SDS011;11870;53.084;18.206;2024-03-23T03:55:49;12.05;;;3.63;;
23394;SDS011;11870;53.084;18.206;2024-03-23T03:58:15;15.80;;;3.53;;
23394;SDS011;11870;53.084;18.206;2024-03-23T04:00:42;14.20;;;4.00;;
23394;SDS011;11870;53.084;18.206;2024-03-23T04:03:08;12.32;;;4.05;;
23394;SDS011;11870;53.084;18.206;2024-03-23T04:05:35;14.52;;;4.53;;
23394;SDS011;11870;53.084;18.206;2024-03-23T04:08:02;19.15;;;3.97;;
23394;SDS011;11870;53.084;18.206;2024-03-23T04:10:28;16.33;;;3.97;;
23394;SDS011;11870;53.084;18.206;2024-03-23T04:12:55;17.95;;;4.68;;
23394;SDS011;11870;53.084;18.206;2024-03-23T04:15:21;15.02;;;4.20;;
23394;SDS011;11870;53.084;18.206;2024-03-23T04:17:48;12.70;;;3.65;;
23394;SDS011;11870;53.084;18.206;2024-03-23T04:20:14;9.85;;;4.20;;
23394;SDS011;11870;53.084;18.206;2024-03-23T04:22:42;13.50;;;3.80;;
23394;SDS011;11870;53.084;18.206;2024-03-23T04:25:09;12.50;;;3.95;;
23394;SDS011;11870;53.084;18.206;2024-03-23T04:27:36;14.73;;;4.18;;
23394;SDS011;11870;53.084;18.206;2024-03-23T04:30:03;13.45;;;5.57;;
23394;SDS011;11870;53.084;18.206;2024-03-23T04:32:36;22.88;;;7.43;;
23394;SDS011;11870;53.084;18.206;2024-03-23T04:35:02;27.10;;;7.45;;
23394;SDS011;11870;53.084;18.206;2024-03-23T04:37:38;16.30;;;6.43;;
23394;SDS011;11870;53.084;18.206;2024-03-23T04:40:08;19.88;;;6.25;;
23394;SDS011;11870;53.084;18.206;2024-03-23T04:42:34;29.58;;;7.22;;
23394;SDS011;11870;53.084;18.206;2024-03-23T04:45:01;23.63;;;8.25;;
23394;SDS011;11870;53.084;18.206;2024-03-23T04:47:27;21.60;;;7.72;;
23394;SDS011;11870;53.084;18.206;2024-03-23T04:49:54;21.02;;;8.38;;
23394;SDS011;11870;53.084;18.206;2024-03-23T04:52:20;30.20;;;13.05;;
23394;SDS011;11870;53.084;18.206;2024-03-23T04:54:47;35.33;;;11.63;;
23394;SDS011;11870;53.084;18.206;2024-03-23T04:57:13;21.63;;;9.73;;
23394;SDS011;11870;53.084;18.206;2024-03-23T04:59:41;22.00;;;10.05;;
23394;SDS011;11870;53.084;18.206;2024-03-23T05:02:08;20.00;;;9.57;;
23394;SDS011;11870;53.084;18.206;2024-03-23T05:04:35;20.30;;;9.10;;
23394;SDS011;11870;53.084;18.206;2024-03-23T05:07:03;26.80;;;9.13;;
23394;SDS011;11870;53.084;18.206;2024-03-23T05:09:29;25.00;;;8.85;;
23394;SDS011;11870;53.084;18.206;2024-03-23T05:11:57;23.23;;;8.10;;
23394;SDS011;11870;53.084;18.206;2024-03-23T05:14:23;18.55;;;8.27;;
23394;SDS011;11870;53.084;18.206;2024-03-23T05:16:50;21.50;;;8.70;;
23394;SDS011;11870;53.084;18.206;2024-03-23T05:19:16;19.35;;;8.25;;
23394;SDS011;11870;53.084;18.206;2024-03-23T05:21:42;27.15;;;10.93;;
23394;SDS011;11870;53.084;18.206;2024-03-23T05:24:09;21.23;;;6.97;;
23394;SDS011;11870;53.084;18.206;2024-03-23T05:26:35;27.73;;;8.18;;
23394;SDS011;11870;53.084;18.206;2024-03-23T05:29:02;28.38;;;9.07;;
23394;SDS011;11870;53.084;18.206;2024-03-23T05:31:29;29.17;;;8.95;;
23394;SDS011;11870;53.084;18.206;2024-03-23T05:33:56;20.60;;;6.60;;
23394;SDS011;11870;53.084;18.206;2024-03-23T05:36:23;30.95;;;8.18;;
23394;SDS011;11870;53.084;18.206;2024-03-23T05:38:49;28.10;;;8.45;;
23394;SDS011;11870;53.084;18.206;2024-03-23T05:41:16;20.20;;;7.13;;
23394;SDS011;11870;53.084;18.206;2024-03-23T05:43:42;26.98;;;8.45;;
23394;SDS011;11870;53.084;18.206;2024-03-23T05:46:09;24.30;;;8.65;;
23394;SDS011;11870;53.084;18.206;2024-03-23T05:48:35;31.23;;;10.75;;
23394;SDS011;11870;53.084;18.206;2024-03-23T05:51:02;29.38;;;10.43;;
23394;SDS011;11870;53.084;18.206;2024-03-23T05:53:28;29.25;;;10.02;;
23394;SDS011;11870;53.084;18.206;2024-03-23T05:56:02;28.52;;;9.68;;
23394;SDS011;11870;53.084;18.206;2024-03-23T05:58:32;21.38;;;8.25;;
23394;SDS011;11870;53.084;18.206;2024-03-23T06:00:59;26.42;;;7.30;;
23394;SDS011;11870;53.084;18.206;2024-03-23T06:03:27;25.27;;;9.30;;
23394;SDS011;11870;53.084;18.206;2024-03-23T06:05:53;27.88;;;9.82;;
23394;SDS011;11870;53.084;18.206;2024-03-23T06:08:20;65.95;;;27.10;;
23394;SDS011;11870;53.084;18.206;2024-03-23T06:10:46;48.15;;;14.77;;
23394;SDS011;11870;53.084;18.206;2024-03-23T06:13:13;99.13;;;40.13;;
23394;SDS011;11870;53.084;18.206;2024-03-23T06:15:40;53.75;;;17.85;;
23394;SDS011;11870;53.084;18.206;2024-03-23T06:18:06;31.00;;;11.88;;
23394;SDS011;11870;53.084;18.206;2024-03-23T06:20:33;42.35;;;12.65;;
23394;SDS011;11870;53.084;18.206;2024-03-23T06:23:00;24.45;;;7.15;;
23394;SDS011;11870;53.084;18.206;2024-03-23T06:25:27;23.23;;;5.55;;
23394;SDS011;11870;53.084;18.206;2024-03-23T06:27:54;18.17;;;5.35;;
23394;SDS011;11870;53.084;18.206;2024-03-23T06:30:20;20.25;;;5.68;;
23394;SDS011;11870;53.084;18.206;2024-03-23T06:32:47;14.95;;;4.35;;
23394;SDS011;11870;53.084;18.206;2024-03-23T06:35:13;18.42;;;5.28;;
23394;SDS011;11870;53.084;18.206;2024-03-23T06:37:40;16.60;;;4.63;;
23394;SDS011;11870;53.084;18.206;2024-03-23T06:40:07;17.77;;;4.78;;
23394;SDS011;11870;53.084;18.206;2024-03-23T06:42:35;21.30;;;4.68;;
23394;SDS011;11870;53.084;18.206;2024-03-23T06:45:02;16.58;;;4.63;;
23394;SDS011;11870;53.084;18.206;2024-03-23T06:47:30;22.23;;;4.15;;
23394;SDS011;11870;53.084;18.206;2024-03-23T06:49:57;10.73;;;3.38;;
23394;SDS011;11870;53.084;18.206;2024-03-23T06:52:23;15.05;;;4.20;;
23394;SDS011;11870;53.084;18.206;2024-03-23T06:54:50;36.85;;;10.43;;
23394;SDS011;11870;53.084;18.206;2024-03-23T06:57:16;34.72;;;9.52;;
23394;SDS011;11870;53.084;18.206;2024-03-23T06:59:43;27.00;;;7.63;;
23394;SDS011;11870;53.084;18.206;2024-03-23T07:02:09;20.17;;;5.90;;
23394;SDS011;11870;53.084;18.206;2024-03-23T07:04:36;25.77;;;5.28;;
23394;SDS011;11870;53.084;18.206;2024-03-23T07:07:04;24.17;;;6.32;;
23394;SDS011;11870;53.084;18.206;2024-03-23T07:09:31;25.60;;;5.90;;
23394;SDS011;11870;53.084;18.206;2024-03-23T07:11:57;18.58;;;5.28;;
23394;SDS011;11870;53.084;18.206;2024-03-23T07:14:24;19.67;;;4.32;;
23394;SDS011;11870;53.084;18.206;2024-03-23T07:16:50;13.45;;;3.38;;
23394;SDS011;11870;53.084;18.206;2024-03-23T07:19:17;16.95;;;4.22;;
23394;SDS011;11870;53.084;18.206;2024-03-23T07:21:44;17.25;;;3.75;;
23394;SDS011;11870;53.084;18.206;2024-03-23T07:24:11;14.20;;;3.42;;
23394;SDS011;11870;53.084;18.206;2024-03-23T07:26:37;18.15;;;4.30;;
23394;SDS011;11870;53.084;18.206;2024-03-23T07:29:06;18.13;;;4.28;;
23394;SDS011;11870;53.084;18.206;2024-03-23T07:31:33;24.58;;;6.55;;
23394;SDS011;11870;53.084;18.206;2024-03-23T07:33:59;16.55;;;5.60;;
23394;SDS011;11870;53.084;18.206;2024-03-23T07:36:26;14.15;;;3.47;;
23394;SDS011;11870;53.084;18.206;2024-03-23T07:38:52;14.32;;;3.60;;
23394;SDS011;11870;53.084;18.206;2024-03-23T07:41:19;14.68;;;3.25;;
23394;SDS011;11870;53.084;18.206;2024-03-23T07:43:46;18.05;;;3.55;;
23394;SDS011;11870;53.084;18.206;2024-03-23T07:46:12;16.88;;;3.70;;
23394;SDS011;11870;53.084;18.206;2024-03-23T07:48:39;18.13;;;4.53;;
23394;SDS011;11870;53.084;18.206;2024-03-23T07:51:22;24.33;;;5.90;;
23394;SDS011;11870;53.084;18.206;2024-03-23T07:53:49;21.02;;;5.20;;
23394;SDS011;11870;53.084;18.206;2024-03-23T07:56:16;15.82;;;4.00;;
23394;SDS011;11870;53.084;18.206;2024-03-23T07:58:44;24.50;;;4.15;;
23394;SDS011;11870;53.084;18.206;2024-03-23T08:01:11;15.43;;;3.42;;
23394;SDS011;11870;53.084;18.206;2024-03-23T08:03:39;13.60;;;3.28;;
23394;SDS011;11870;53.084;18.206;2024-03-23T08:08:35;14.27;;;3.38;;
23394;SDS011;11870;53.084;18.206;2024-03-23T08:11:02;13.82;;;3.17;;
23394;SDS011;11870;53.084;18.206;2024-03-23T08:13:29;15.32;;;3.47;;
23394;SDS011;11870;53.084;18.206;2024-03-23T08:15:57;15.93;;;3.50;;
23394;SDS011;11870;53.084;18.206;2024-03-23T08:18:23;13.57;;;3.60;;
23394;SDS011;11870;53.084;18.206;2024-03-23T08:20:59;15.60;;;3.88;;
23394;SDS011;11870;53.084;18.206;2024-03-23T08:23:27;16.95;;;3.20;;
23394;SDS011;11870;53.084;18.206;2024-03-23T08:26:03;14.02;;;3.22;;
23394;SDS011;11870;53.084;18.206;2024-03-23T08:28:30;13.23;;;3.67;;
23394;SDS011;11870;53.084;18.206;2024-03-23T08:30:56;16.20;;;4.65;;
23394;SDS011;11870;53.084;18.206;2024-03-23T08:33:23;18.45;;;4.90;;
23394;SDS011;11870;53.084;18.206;2024-03-23T08:35:57;10.18;;;3.92;;
23394;SDS011;11870;53.084;18.206;2024-03-23T08:38:24;18.27;;;3.92;;
23394;SDS011;11870;53.084;18.206;2024-03-23T08:43:24;16.38;;;4.65;;
23394;SDS011;11870;53.084;18.206;2024-03-23T08:45:50;16.77;;;4.47;;
23394;SDS011;11870;53.084;18.206;2024-03-23T08:48:18;15.55;;;2.55;;
23394;SDS011;11870;53.084;18.206;2024-03-23T08:50:46;13.13;;;2.85;;
23394;SDS011;11870;53.084;18.206;2024-03-23T08:53:13;17.27;;;3.65;;
23394;SDS011;11870;53.084;18.206;2024-03-23T08:55:39;16.27;;;3.42;;
23394;SDS011;11870;53.084;18.206;2024-03-23T08:58:06;11.68;;;3.30;;
23394;SDS011;11870;53.084;18.206;2024-03-23T09:00:33;15.75;;;3.50;;
23394;SDS011;11870;53.084;18.206;2024-03-23T09:03:00;15.73;;;3.05;;
23394;SDS011;11870;53.084;18.206;2024-03-23T09:05:28;13.57;;;3.45;;
23394;SDS011;11870;53.084;18.206;2024-03-23T09:08:00;20.85;;;4.15;;
23394;SDS011;11870;53.084;18.206;2024-03-23T09:10:27;12.90;;;3.50;;
23394;SDS011;11870;53.084;18.206;2024-03-23T09:12:53;10.05;;;3.45;;
23394;SDS011;11870;53.084;18.206;2024-03-23T09:15:19;12.40;;;2.83;;
23394;SDS011;11870;53.084;18.206;2024-03-23T09:17:46;8.23;;;2.47;;
23394;SDS011;11870;53.084;18.206;2024-03-23T09:20:12;19.55;;;4.40;;
23394;SDS011;11870;53.084;18.206;2024-03-23T09:22:39;16.98;;;5.00;;
23394;SDS011;11870;53.084;18.206;2024-03-23T09:25:05;20.20;;;7.40;;
23394;SDS011;11870;53.084;18.206;2024-03-23T09:27:32;11.30;;;3.70;;
23394;SDS011;11870;53.084;18.206;2024-03-23T09:29:59;15.80;;;4.25;;
23394;SDS011;11870;53.084;18.206;2024-03-23T09:32:25;13.32;;;3.25;;
23394;SDS011;11870;53.084;18.206;2024-03-23T09:34:52;12.80;;;3.20;;
23394;SDS011;11870;53.084;18.206;2024-03-23T09:37:18;12.35;;;3.75;;
23394;SDS011;11870;53.084;18.206;2024-03-23T09:39:45;9.77;;;3.08;;
23394;SDS011;11870;53.084;18.206;2024-03-23T09:42:12;7.40;;;2.67;;
23394;SDS011;11870;53.084;18.206;2024-03-23T09:44:40;8.55;;;2.40;;
23394;SDS011;11870;53.084;18.206;2024-03-23T09:47:07;11.02;;;3.03;;
23394;SDS011;11870;53.084;18.206;2024-03-23T09:49:34;9.90;;;3.78;;
23394;SDS011;11870;53.084;18.206;2024-03-23T09:52:04;9.25;;;2.60;;
23394;SDS011;11870;53.084;18.206;2024-03-23T09:54:30;8.70;;;3.97;;
23394;SDS011;11870;53.084;18.206;2024-03-23T09:56:58;9.05;;;3.15;;
23394;SDS011;11870;53.084;18.206;2024-03-23T09:59:24;8.18;;;2.30;;
23394;SDS011;11870;53.084;18.206;2024-03-23T10:01:55;5.18;;;1.95;;
23394;SDS011;11870;53.084;18.206;2024-03-23T10:07:20;5.80;;;1.80;;
23394;SDS011;11870;53.084;18.206;2024-03-23T10:09:47;2.83;;;1.30;;
23394;SDS011;11870;53.084;18.206;2024-03-23T10:12:18;6.10;;;2.80;;
23394;SDS011;11870;53.084;18.206;2024-03-23T10:14:44;4.07;;;1.92;;
23394;SDS011;11870;53.084;18.206;2024-03-23T10:17:14;4.15;;;1.85;;
23394;SDS011;11870;53.084;18.206;2024-03-23T10:19:43;3.22;;;1.30;;
23394;SDS011;11870;53.084;18.206;2024-03-23T10:22:10;2.03;;;1.20;;
23394;SDS011;11870;53.084;18.206;2024-03-23T10:24:36;7.85;;;2.75;;
23394;SDS011;11870;53.084;18.206;2024-03-23T10:27:03;4.57;;;1.40;;
23394;SDS011;11870;53.084;18.206;2024-03-23T10:29:29;5.28;;;2.15;;
23394;SDS011;11870;53.084;18.206;2024-03-23T10:32:09;4.15;;;1.40;;
23394;SDS011;11870;53.084;18.206;2024-03-23T10:34:35;4.93;;;1.70;;
23394;SDS011;11870;53.084;18.206;2024-03-23T10:37:02;4.18;;;1.75;;
23394;SDS011;11870;53.084;18.206;2024-03-23T10:39:32;4.57;;;1.75;;
23394;SDS011;11870;53.084;18.206;2024-03-23T10:42:03;2.60;;;1.27;;
23394;SDS011;11870;53.084;18.206;2024-03-23T10:44:29;7.65;;;2.85;;
23394;SDS011;11870;53.084;18.206;2024-03-23T10:46:57;7.65;;;1.70;;
23394;SDS011;11870;53.084;18.206;2024-03-23T10:49:36;10.32;;;2.53;;
23394;SDS011;11870;53.084;18.206;2024-03-23T10:52:03;9.43;;;2.50;;
23394;SDS011;11870;53.084;18.206;2024-03-23T10:54:30;7.03;;;2.20;;
23394;SDS011;11870;53.084;18.206;2024-03-23T10:56:59;7.80;;;2.42;;
23394;SDS011;11870;53.084;18.206;2024-03-23T10:59:27;5.55;;;2.10;;
23394;SDS011;11870;53.084;18.206;2024-03-23T11:01:59;4.28;;;2.20;;
23394;SDS011;11870;53.084;18.206;2024-03-23T11:04:37;4.43;;;2.38;;
23394;SDS011;11870;53.084;18.206;2024-03-23T11:09:50;9.18;;;2.80;;
23394;SDS011;11870;53.084;18.206;2024-03-23T11:17:20;4.47;;;1.95;;
23394;SDS011;11870;53.084;18.206;2024-03-23T11:19:56;5.78;;;2.20;;
23394;SDS011;11870;53.084;18.206;2024-03-23T11:22:39;6.72;;;2.88;;
23394;SDS011;11870;53.084;18.206;2024-03-23T11:25:19;8.35;;;2.20;;
23394;SDS011;11870;53.084;18.206;2024-03-23T11:27:55;12.63;;;6.45;;
23394;SDS011;11870;53.084;18.206;2024-03-23T11:30:26;7.35;;;2.92;;
23394;SDS011;11870;53.084;18.206;2024-03-23T11:32:56;8.52;;;1.90;;
23394;SDS011;11870;53.084;18.206;2024-03-23T11:35:26;7.88;;;3.97;;
23394;SDS011;11870;53.084;18.206;2024-03-23T11:38:03;6.68;;;2.88;;
23394;SDS011;11870;53.084;18.206;2024-03-23T11:40:30;10.90;;;3.65;;
23394;SDS011;11870;53.084;18.206;2024-03-23T11:43:01;10.35;;;2.83;;
23394;SDS011;11870;53.084;18.206;2024-03-23T11:45:28;9.52;;;2.97;;
23394;SDS011;11870;53.084;18.206;2024-03-23T11:48:01;8.48;;;2.83;;
23394;SDS011;11870;53.084;18.206;2024-03-23T11:50:28;8.25;;;2.67;;
23394;SDS011;11870;53.084;18.206;2024-03-23T11:53:07;5.15;;;2.10;;
23394;SDS011;11870;53.084;18.206;2024-03-23T11:55:44;11.20;;;2.97;;
23394;SDS011;11870;53.084;18.206;2024-03-23T11:58:11;10.73;;;4.38;;
23394;SDS011;11870;53.084;18.206;2024-03-23T12:00:38;9.32;;;2.95;;
23394;SDS011;11870;53.084;18.206;2024-03-23T12:03:05;8.90;;;3.67;;
23394;SDS011;11870;53.084;18.206;2024-03-23T12:05:32;7.20;;;3.05;;
23394;SDS011;11870;53.084;18.206;2024-03-23T12:10:48;7.13;;;2.60;;
23394;SDS011;11870;53.084;18.206;2024-03-23T12:13:15;6.63;;;3.10;;
23394;SDS011;11870;53.084;18.206;2024-03-23T12:15:44;30.92;;;8.95;;
23394;SDS011;11870;53.084;18.206;2024-03-23T12:18:10;9.98;;;4.20;;
23394;SDS011;11870;53.084;18.206;2024-03-23T12:20:37;10.18;;;3.80;;
23394;SDS011;11870;53.084;18.206;2024-03-23T12:23:13;7.07;;;2.90;;
23394;SDS011;11870;53.084;18.206;2024-03-23T12:25:39;6.07;;;3.20;;
23394;SDS011;11870;53.084;18.206;2024-03-23T12:28:06;9.85;;;2.92;;
23394;SDS011;11870;53.084;18.206;2024-03-23T12:30:33;7.57;;;3.75;;
23394;SDS011;11870;53.084;18.206;2024-03-23T12:33:00;9.93;;;4.15;;
23394;SDS011;11870;53.084;18.206;2024-03-23T12:35:26;8.77;;;3.85;;
23394;SDS011;11870;53.084;18.206;2024-03-23T12:37:53;6.53;;;3.38;;
23394;SDS011;11870;53.084;18.206;2024-03-23T12:40:19;8.48;;;3.20;;
23394;SDS011;11870;53.084;18.206;2024-03-23T12:42:46;8.35;;;3.50;;
23394;SDS011;11870;53.084;18.206;2024-03-23T12:45:12;6.97;;;3.60;;
23394;SDS011;11870;53.084;18.206;2024-03-23T12:47:38;11.20;;;4.97;;
23394;SDS011;11870;53.084;18.206;2024-03-23T12:50:05;13.65;;;5.57;;
23394;SDS011;11870;53.084;18.206;2024-03-23T12:52:32;9.85;;;4.95;;
23394;SDS011;11870;53.084;18.206;2024-03-23T12:54:59;9.55;;;4.45;;
23394;SDS011;11870;53.084;18.206;2024-03-23T12:57:25;12.52;;;4.47;;
23394;SDS011;11870;53.084;18.206;2024-03-23T12:59:52;11.00;;;4.63;;
23394;SDS011;11870;53.084;18.206;2024-03-23T13:02:19;10.50;;;4.43;;
23394;SDS011;11870;53.084;18.206;2024-03-23T13:04:47;14.82;;;6.20;;
23394;SDS011;11870;53.084;18.206;2024-03-23T13:07:15;16.45;;;7.30;;
23394;SDS011;11870;53.084;18.206;2024-03-23T13:09:42;12.50;;;6.60;;
23394;SDS011;11870;53.084;18.206;2024-03-23T13:12:08;10.40;;;5.13;;
23394;SDS011;11870;53.084;18.206;2024-03-23T13:14:35;15.65;;;5.53;;
23394;SDS011;11870;53.084;18.206;2024-03-23T13:17:01;15.82;;;5.07;;
23394;SDS011;11870;53.084;18.206;2024-03-23T13:19:28;9.48;;;3.53;;
23394;SDS011;11870;53.084;18.206;2024-03-23T13:21:59;25.42;;;12.88;;
23394;SDS011;11870;53.084;18.206;2024-03-23T13:24:26;5.32;;;2.72;;
23394;SDS011;11870;53.084;18.206;2024-03-23T13:26:53;5.28;;;2.35;;
23394;SDS011;11870;53.084;18.206;2024-03-23T13:29:20;6.75;;;1.98;;
23394;SDS011;11870;53.084;18.206;2024-03-23T13:31:48;6.38;;;2.13;;
23394;SDS011;11870;53.084;18.206;2024-03-23T13:34:15;6.65;;;2.30;;
23394;SDS011;11870;53.084;18.206;2024-03-23T13:36:41;4.15;;;2.10;;
23394;SDS011;11870;53.084;18.206;2024-03-23T13:39:08;8.73;;;2.67;;
23394;SDS011;11870;53.084;18.206;2024-03-23T13:41:43;8.10;;;2.13;;
23394;SDS011;11870;53.084;18.206;2024-03-23T13:44:13;10.63;;;2.75;;
23394;SDS011;11870;53.084;18.206;2024-03-23T13:46:40;4.55;;;2.00;;
23394;SDS011;11870;53.084;18.206;2024-03-23T13:49:26;3.40;;;1.90;;
23394;SDS011;11870;53.084;18.206;2024-03-23T13:51:53;6.03;;;1.80;;
23394;SDS011;11870;53.084;18.206;2024-03-23T13:54:21;5.28;;;1.80;;
23394;SDS011;11870;53.084;18.206;2024-03-23T13:56:48;6.00;;;1.77;;
23394;SDS011;11870;53.084;18.206;2024-03-23T13:59:15;8.23;;;2.30;;
23394;SDS011;11870;53.084;18.206;2024-03-23T14:01:42;9.93;;;1.98;;
23394;SDS011;11870;53.084;18.206;2024-03-23T14:04:09;4.80;;;1.88;;
23394;SDS011;11870;53.084;18.206;2024-03-23T14:06:36;6.43;;;2.10;;
23394;SDS011;11870;53.084;18.206;2024-03-23T14:09:03;6.60;;;1.85;;
23394;SDS011;11870;53.084;18.206;2024-03-23T14:11:30;4.03;;;1.90;;
23394;SDS011;11870;53.084;18.206;2024-03-23T14:13:56;4.35;;;1.95;;
23394;SDS011;11870;53.084;18.206;2024-03-23T14:16:23;5.32;;;1.90;;
23394;SDS011;11870;53.084;18.206;2024-03-23T14:18:49;4.70;;;1.73;;
23394;SDS011;11870;53.084;18.206;2024-03-23T14:21:16;6.15;;;1.70;;
23394;SDS011;11870;53.084;18.206;2024-03-23T14:23:43;5.93;;;1.50;;
23394;SDS011;11870;53.084;18.206;2024-03-23T14:26:09;3.03;;;1.70;;
23394;SDS011;11870;53.084;18.206;2024-03-23T14:28:36;4.28;;;1.52;;
23394;SDS011;11870;53.084;18.206;2024-03-23T14:31:02;5.97;;;1.50;;
23394;SDS011;11870;53.084;18.206;2024-03-23T14:33:38;9.10;;;1.70;;
23394;SDS011;11870;53.084;18.206;2024-03-23T14:36:23;6.35;;;1.65;;
23394;SDS011;11870;53.084;18.206;2024-03-23T14:38:50;7.15;;;1.50;;
23394;SDS011;11870;53.084;18.206;2024-03-23T14:41:17;2.78;;;1.48;;
23394;SDS011;11870;53.084;18.206;2024-03-23T14:43:44;5.78;;;1.85;;
23394;SDS011;11870;53.084;18.206;2024-03-23T14:46:13;4.53;;;1.60;;
23394;SDS011;11870;53.084;18.206;2024-03-23T14:48:42;6.13;;;2.03;;
23394;SDS011;11870;53.084;18.206;2024-03-23T14:51:09;4.35;;;1.85;;
23394;SDS011;11870;53.084;18.206;2024-03-23T14:53:37;6.07;;;2.03;;
23394;SDS011;11870;53.084;18.206;2024-03-23T14:56:05;7.20;;;2.10;;
23394;SDS011;11870;53.084;18.206;2024-03-23T14:58:32;6.85;;;2.30;;
23394;SDS011;11870;53.084;18.206;2024-03-23T15:01:01;3.85;;;1.95;;
23394;SDS011;11870;53.084;18.206;2024-03-23T15:03:28;7.95;;;2.25;;
23394;SDS011;11870;53.084;18.206;2024-03-23T15:05:55;3.95;;;1.75;;
23394;SDS011;11870;53.084;18.206;2024-03-23T15:08:22;5.95;;;1.92;;
23394;SDS011;11870;53.084;18.206;2024-03-23T15:10:48;3.67;;;1.83;;
23394;SDS011;11870;53.084;18.206;2024-03-23T15:13:15;2.83;;;1.92;;
23394;SDS011;11870;53.084;18.206;2024-03-23T15:15:42;3.53;;;1.75;;
23394;SDS011;11870;53.084;18.206;2024-03-23T15:18:14;3.13;;;1.77;;
23394;SDS011;11870;53.084;18.206;2024-03-23T15:20:41;4.07;;;1.45;;
23394;SDS011;11870;53.084;18.206;2024-03-23T15:23:08;4.40;;;2.30;;
23394;SDS011;11870;53.084;18.206;2024-03-23T15:25:34;6.75;;;1.98;;
23394;SDS011;11870;53.084;18.206;2024-03-23T15:28:01;2.97;;;1.60;;
23394;SDS011;11870;53.084;18.206;2024-03-23T15:30:28;4.00;;;1.73;;
23394;SDS011;11870;53.084;18.206;2024-03-23T15:32:55;5.95;;;1.75;;
23394;SDS011;11870;53.084;18.206;2024-03-23T15:35:21;4.20;;;1.80;;
23394;SDS011;11870;53.084;18.206;2024-03-23T15:37:49;5.13;;;2.05;;
23394;SDS011;11870;53.084;18.206;2024-03-23T15:40:16;2.92;;;1.50;;